Time;durP1;ratioP1;P1;durP2;ratioP2;P2;SDS_P1;SDS_P2;PMS_P1;PMS_P2;Temp;Humidity;BMP_temperature;BMP_pressure;BME280_temperature;BME280_humidity;BME280_pressure;Samples;Min_cycle;Max_cycle;Signal;HPM_P1;HPM_P2
2022/11/02 00:00:57;;;;;;;19.17;2.90;;;;;;;;;;5041446;28;20033;-78
2022/11/02 00:03:23;;;;;;;13.55;2.38;;;;;;;;;;5041358;28;20033;-78
2022/11/02 00:05:49;;;;;;;19.17;3.10;;;;;;;;;;5038811;28;20125;-77
2022/11/02 00:08:15;;;;;;;22.42;3.00;;;;;;;;;;5038468;28;20120;-78
2022/11/02 00:10:41;;;;;;;21.55;3.28;;;;;;;;;;5040018;28;20390;-77
2022/11/02 00:13:07;;;;;;;16.98;3.03;;;;;;;;;;5040629;28;20537;-78
2022/11/02 00:15:34;;;;;;;18.42;2.88;;;;;;;;;;5040894;28;20033;-78
2022/11/02 00:18:03;;;;;;;22.05;3.10;;;;;;;;;;5039902;28;20051;-77
2022/11/02 00:20:29;;;;;;;19.73;3.13;;;;;;;;;;5046224;28;20040;-77
2022/11/02 00:22:56;;;;;;;16.10;2.40;;;;;;;;;;5057737;28;20032;-77
2022/11/02 00:25:23;;;;;;;17.40;2.67;;;;;;;;;;5058474;28;20037;-77
2022/11/02 00:27:49;;;;;;;15.80;2.58;;;;;;;;;;5058068;28;20013;-78
2022/11/02 00:30:15;;;;;;;19.35;2.65;;;;;;;;;;5058515;28;20025;-77
2022/11/02 00:32:41;;;;;;;22.65;2.80;;;;;;;;;;5039512;28;20375;-77
2022/11/02 00:35:07;;;;;;;18.27;3.22;;;;;;;;;;5036020;28;20028;-77
2022/11/02 00:37:33;;;;;;;22.63;2.40;;;;;;;;;;5035846;28;20030;-77
2022/11/02 00:39:59;;;;;;;24.50;2.90;;;;;;;;;;5035026;28;20037;-77
2022/11/02 00:42:25;;;;;;;18.42;3.47;;;;;;;;;;5034884;28;20025;-77
2022/11/02 00:44:51;;;;;;;20.90;3.28;;;;;;;;;;5035203;28;20394;-77
2022/11/02 00:47:17;;;;;;;18.33;2.85;;;;;;;;;;5034785;28;20415;-77
2022/11/02 00:49:43;;;;;;;21.58;3.00;;;;;;;;;;5034809;28;20441;-77
2022/11/02 00:52:09;;;;;;;20.83;2.50;;;;;;;;;;5034970;28;20045;-77
2022/11/02 00:54:35;;;;;;;22.45;3.47;;;;;;;;;;5034807;28;20045;-77
2022/11/02 00:57:01;;;;;;;16.10;3.25;;;;;;;;;;5034649;28;20060;-77
2022/11/02 00:59:27;;;;;;;20.70;2.88;;;;;;;;;;5035748;28;20029;-77
2022/11/02 01:01:52;;;;;;;21.40;3.70;;;;;;;;;;5035088;28;20068;-77
2022/11/02 01:04:18;;;;;;;15.40;2.67;;;;;;;;;;5036074;28;20033;-78
2022/11/02 01:06:45;;;;;;;20.42;3.50;;;;;;;;;;5035224;28;20026;-77
2022/11/02 01:09:13;;;;;;;17.60;2.92;;;;;;;;;;5035170;28;20364;-77
2022/11/02 01:11:39;;;;;;;20.30;3.30;;;;;;;;;;5034604;28;20041;-76
2022/11/02 01:14:05;;;;;;;16.48;3.05;;;;;;;;;;5034792;28;20025;-77
2022/11/02 01:16:31;;;;;;;24.13;2.38;;;;;;;;;;5033518;28;20376;-76
2022/11/02 01:18:57;;;;;;;14.10;2.90;;;;;;;;;;5035616;28;20025;-77
2022/11/02 01:21:23;;;;;;;19.70;2.92;;;;;;;;;;5057764;22;20049;-73
2022/11/02 01:23:50;;;;;;;16.40;2.50;;;;;;;;;;5038521;28;20025;-72
2022/11/02 01:26:16;;;;;;;19.23;3.33;;;;;;;;;;5044534;28;20496;-73
2022/11/02 01:28:42;;;;;;;21.45;3.53;;;;;;;;;;5042170;28;20142;-72
2022/11/02 01:31:09;;;;;;;25.05;3.60;;;;;;;;;;5021128;28;20026;-72
2022/11/02 01:33:35;;;;;;;15.02;2.30;;;;;;;;;;5034932;28;20084;-73
2022/11/02 01:36:04;;;;;;;15.75;2.42;;;;;;;;;;5034326;28;20029;-72
2022/11/02 01:38:31;;;;;;;24.73;3.10;;;;;;;;;;5034701;28;20213;-72
2022/11/02 01:40:57;;;;;;;18.95;2.90;;;;;;;;;;5016569;28;20029;-73
2022/11/02 01:43:24;;;;;;;26.80;2.85;;;;;;;;;;5016902;28;20037;-72
2022/11/02 01:45:51;;;;;;;25.95;3.20;;;;;;;;;;5034136;28;20022;-71
2022/11/02 01:48:25;;;;;;;21.60;3.00;;;;;;;;;;5034399;28;20041;-72
2022/11/02 01:50:51;;;;;;;;;;;;;;;;;;5016919;28;20022;-73
2022/11/02 01:53:17;;;;;;;26.67;3.17;;;;;;;;;;5034203;28;20384;-73
2022/11/02 01:55:43;;;;;;;20.73;2.78;;;;;;;;;;5034066;28;20037;-73
2022/11/02 01:58:11;;;;;;;24.70;3.42;;;;;;;;;;5038328;28;20056;-73
2022/11/02 02:00:38;;;;;;;17.60;2.80;;;;;;;;;;5037547;28;20026;-73
2022/11/02 02:03:06;;;;;;;28.48;3.22;;;;;;;;;;5034245;28;20025;-73
2022/11/02 02:05:34;;;;;;;22.45;2.92;;;;;;;;;;5033749;28;20025;-73
2022/11/02 02:08:01;;;;;;;17.40;3.00;;;;;;;;;;5034306;28;20064;-73
2022/11/02 02:10:27;;;;;;;18.05;3.05;;;;;;;;;;5033365;28;20017;-73
2022/11/02 02:12:53;;;;;;;24.30;3.55;;;;;;;;;;5032876;28;20520;-72
2022/11/02 02:15:20;;;;;;;20.92;2.60;;;;;;;;;;5033866;28;20026;-76
2022/11/02 02:18:00;;;;;;;26.83;3.20;;;;;;;;;;5034534;28;20030;-73
2022/11/02 02:20:49;;;;;;;24.52;3.10;;;;;;;;;;5034115;28;20390;-74
2022/11/02 02:23:15;;;;;;;23.48;3.20;;;;;;;;;;5039008;28;20017;-72
2022/11/02 02:25:47;;;;;;;26.83;3.38;;;;;;;;;;5033429;28;20029;-72
2022/11/02 02:28:13;;;;;;;14.68;3.13;;;;;;;;;;5034308;28;20025;-72
2022/11/02 02:30:43;;;;;;;22.42;3.13;;;;;;;;;;5035142;28;20028;-72
2022/11/02 02:33:12;;;;;;;18.05;2.58;;;;;;;;;;5034061;28;20383;-73
2022/11/02 02:36:07;;;;;;;21.08;2.63;;;;;;;;;;5035146;28;20025;-74
2022/11/02 02:38:35;;;;;;;21.52;2.70;;;;;;;;;;5030261;28;20409;-72
2022/11/02 02:41:11;;;;;;;29.40;3.05;;;;;;;;;;5043363;28;20025;-72
2022/11/02 02:43:46;;;;;;;19.58;3.13;;;;;;;;;;5046815;28;20064;-73
2022/11/02 02:46:19;;;;;;;28.48;3.10;;;;;;;;;;5055423;28;20243;-74
2022/11/02 02:48:46;;;;;;;26.55;2.75;;;;;;;;;;5057675;28;20013;-72
2022/11/02 02:51:20;;;;;;;24.20;3.70;;;;;;;;;;5056442;28;20037;-73
2022/11/02 02:54:06;;;;;;;34.30;4.25;;;;;;;;;;5057285;28;20021;-74
2022/11/02 02:56:36;;;;;;;19.85;2.83;;;;;;;;;;5057323;28;20037;-72
2022/11/02 02:59:06;;;;;;;22.10;3.08;;;;;;;;;;5054375;28;20077;-72
2022/11/02 03:01:33;;;;;;;27.05;3.22;;;;;;;;;;5053048;28;20035;-73
2022/11/02 03:03:59;;;;;;;22.05;2.90;;;;;;;;;;5056675;28;20021;-74
2022/11/02 03:06:30;;;;;;;20.50;3.70;;;;;;;;;;5056346;28;20033;-73
2022/11/02 03:09:15;;;;;;;21.40;3.10;;;;;;;;;;5039300;28;20018;-75
2022/11/02 03:11:41;;;;;;;;;;;;;;;;;;5039334;28;20017;-74
2022/11/02 03:14:12;;;;;;;23.17;3.35;;;;;;;;;;5037990;28;19996;-74
2022/11/02 03:16:43;;;;;;;21.00;3.05;;;;;;;;;;5033037;28;20025;-72
2022/11/02 03:19:16;;;;;;;20.02;3.15;;;;;;;;;;5015215;28;20386;-73
2022/11/02 03:21:43;;;;;;;19.73;2.92;;;;;;;;;;5033921;28;20033;-73
2022/11/02 03:24:09;;;;;;;26.23;3.70;;;;;;;;;;5016421;28;20049;-72
2022/11/02 03:26:38;;;;;;;19.40;2.85;;;;;;;;;;5033783;28;20516;-74
2022/11/02 03:29:08;;;;;;;22.20;3.05;;;;;;;;;;5015093;28;20021;-73
2022/11/02 03:31:40;;;;;;;24.42;3.13;;;;;;;;;;5032745;28;20017;-73
2022/11/02 03:34:24;;;;;;;17.35;3.00;;;;;;;;;;5015265;28;20359;-73
2022/11/02 03:36:54;;;;;;;29.60;3.58;;;;;;;;;;5032950;28;20569;-71
2022/11/02 03:39:24;;;;;;;25.05;3.53;;;;;;;;;;5034863;28;20475;-73
2022/11/02 03:41:51;;;;;;;17.50;2.78;;;;;;;;;;5034800;28;20029;-74
2022/11/02 03:44:20;;;;;;;22.08;3.38;;;;;;;;;;5032968;28;20442;-72
2022/11/02 03:46:47;;;;;;;24.02;3.35;;;;;;;;;;5032441;28;20025;-72
2022/11/02 03:49:15;;;;;;;22.02;3.08;;;;;;;;;;5032687;28;20049;-71
2022/11/02 03:51:43;;;;;;;21.17;3.17;;;;;;;;;;5032541;28;20408;-72
2022/11/02 03:54:13;;;;;;;23.67;3.55;;;;;;;;;;5032920;28;20022;-72
2022/11/02 03:56:45;;;;;;;22.00;2.95;;;;;;;;;;5041909;28;20386;-73
2022/11/02 03:59:12;;;;;;;24.95;3.47;;;;;;;;;;5022380;28;20045;-74
2022/11/02 04:01:45;;;;;;;22.75;2.88;;;;;;;;;;5036421;28;20136;-72
2022/11/02 04:04:11;;;;;;;22.65;3.17;;;;;;;;;;5036226;28;20021;-72
2022/11/02 04:06:38;;;;;;;24.20;3.30;;;;;;;;;;5035422;28;20025;-73
2022/11/02 04:09:04;;;;;;;20.58;3.40;;;;;;;;;;5035860;28;20025;-71
2022/11/02 04:19:45;;;;;;;20.05;3.47;;;;;;;;;;5036262;28;20147;-74
2022/11/02 04:27:40;;;;;;;21.35;3.38;;;;;;;;;;5035852;28;20121;-73
2022/11/02 04:30:06;;;;;;;23.45;2.97;;;;;;;;;;5043805;28;20045;-71
2022/11/02 04:35:23;;;;;;;22.33;3.40;;;;;;;;;;5046626;28;20040;-74
2022/11/02 04:40:34;;;;;;;24.65;3.38;;;;;;;;;;5040220;28;20398;-73
2022/11/02 04:43:00;;;;;;;18.73;3.47;;;;;;;;;;5036118;28;20030;-72
2022/11/02 04:45:26;;;;;;;21.98;3.25;;;;;;;;;;5035934;28;20026;-72
2022/11/02 04:47:52;;;;;;;24.98;3.05;;;;;;;;;;5035708;28;20048;-73
2022/11/02 04:50:17;;;;;;;21.25;3.25;;;;;;;;;;5035431;28;20432;-72
2022/11/02 04:52:43;;;;;;;20.17;3.10;;;;;;;;;;5035460;28;20056;-72
2022/11/02 04:55:09;;;;;;;24.85;3.58;;;;;;;;;;5035479;28;20026;-74
2022/11/02 04:57:35;;;;;;;16.75;2.65;;;;;;;;;;5035578;28;20057;-73
2022/11/02 05:00:02;;;;;;;26.15;3.35;;;;;;;;;;5036700;28;20078;-75
2022/11/02 05:02:28;;;;;;;31.42;3.78;;;;;;;;;;5038451;28;20399;-73
2022/11/02 05:04:53;;;;;;;23.10;3.65;;;;;;;;;;5044631;28;20044;-72
2022/11/02 05:07:19;;;;;;;21.88;3.33;;;;;;;;;;5042047;28;20036;-73
2022/11/02 05:09:45;;;;;;;28.77;4.03;;;;;;;;;;5035469;28;20105;-73
2022/11/02 05:12:11;;;;;;;20.98;2.85;;;;;;;;;;5036997;28;20021;-72
2022/11/02 05:14:37;;;;;;;20.00;3.05;;;;;;;;;;5037140;28;20029;-72
2022/11/02 05:17:03;;;;;;;19.00;3.47;;;;;;;;;;5037720;28;20116;-74
2022/11/02 05:19:29;;;;;;;21.98;3.10;;;;;;;;;;5036048;28;20424;-72
2022/11/02 05:21:55;;;;;;;24.63;3.35;;;;;;;;;;5034964;28;20120;-73
2022/11/02 05:24:21;;;;;;;30.40;3.85;;;;;;;;;;5035279;28;20036;-71
2022/11/02 05:26:47;;;;;;;20.75;2.88;;;;;;;;;;5034069;28;20030;-72
2022/11/02 05:29:13;;;;;;;21.80;3.20;;;;;;;;;;5034865;28;20030;-72
2022/11/02 05:31:39;;;;;;;25.38;4.05;;;;;;;;;;5035185;28;20048;-73
2022/11/02 05:34:05;;;;;;;22.52;3.47;;;;;;;;;;5017203;28;20363;-73
2022/11/02 05:36:31;;;;;;;20.23;3.05;;;;;;;;;;5034239;28;20478;-72
2022/11/02 05:38:57;;;;;;;27.00;3.33;;;;;;;;;;5034448;28;20029;-73
2022/11/02 05:41:23;;;;;;;27.02;3.25;;;;;;;;;;5034234;28;20103;-73
2022/11/02 05:43:49;;;;;;;29.67;3.08;;;;;;;;;;5034406;28;20051;-74
2022/11/02 05:46:15;;;;;;;23.58;3.53;;;;;;;;;;5034048;28;20488;-73
2022/11/02 05:48:41;;;;;;;22.85;3.03;;;;;;;;;;5034296;28;20021;-74
2022/11/02 05:51:07;;;;;;;25.50;4.05;;;;;;;;;;5035296;28;20045;-73
2022/11/02 05:53:37;;;;;;;28.90;3.28;;;;;;;;;;5035521;28;20028;-73
2022/11/02 05:56:04;;;;;;;22.45;3.35;;;;;;;;;;5035355;28;20025;-74
2022/11/02 05:58:30;;;;;;;21.73;3.53;;;;;;;;;;5034396;28;20485;-72
2022/11/02 06:00:59;;;;;;;21.40;3.05;;;;;;;;;;5033870;28;20096;-72
2022/11/02 06:03:25;;;;;;;28.73;3.92;;;;;;;;;;5033931;28;20453;-73
2022/11/02 06:05:58;;;;;;;31.30;3.92;;;;;;;;;;5033724;28;20021;-73
2022/11/02 06:08:24;;;;;;;21.88;3.08;;;;;;;;;;5034467;28;20033;-73
2022/11/02 06:10:50;;;;;;;27.70;3.55;;;;;;;;;;5034797;28;20102;-72
2022/11/02 06:13:16;;;;;;;25.00;3.80;;;;;;;;;;5033861;28;20025;-72
2022/11/02 06:15:42;;;;;;;22.60;3.72;;;;;;;;;;5033829;28;20083;-72
2022/11/02 06:18:08;;;;;;;29.55;3.22;;;;;;;;;;5017310;28;20059;-74
2022/11/02 06:20:35;;;;;;;24.10;3.50;;;;;;;;;;5033629;28;20057;-73
2022/11/02 06:23:01;;;;;;;23.52;3.33;;;;;;;;;;5034530;28;20112;-73
2022/11/02 06:25:27;;;;;;;27.27;3.83;;;;;;;;;;5034194;28;20566;-72
2022/11/02 06:27:55;;;;;;;28.92;4.13;;;;;;;;;;5035118;28;20029;-73
2022/11/02 06:30:21;;;;;;;24.55;3.47;;;;;;;;;;5034279;28;20378;-74
2022/11/02 06:32:48;;;;;;;21.58;3.85;;;;;;;;;;5035039;28;20459;-72
2022/11/02 06:35:14;;;;;;;21.45;3.83;;;;;;;;;;5034076;28;20025;-75
2022/11/02 06:37:40;;;;;;;21.92;3.95;;;;;;;;;;5033182;28;20033;-75
2022/11/02 06:40:06;;;;;;;23.00;3.53;;;;;;;;;;5034280;28;20474;-73
2022/11/02 06:42:32;;;;;;;27.77;3.65;;;;;;;;;;5034290;28;20483;-73
2022/11/02 06:45:01;;;;;;;20.90;3.85;;;;;;;;;;5036144;28;20101;-74
2022/11/02 06:47:31;;;;;;;20.60;3.22;;;;;;;;;;5038928;28;20520;-74
2022/11/02 06:49:57;;;;;;;22.92;2.92;;;;;;;;;;5038608;28;20059;-72
2022/11/02 06:52:23;;;;;;;18.63;3.63;;;;;;;;;;5042166;28;20085;-73
2022/11/02 06:54:49;;;;;;;22.90;3.28;;;;;;;;;;5043046;28;20152;-74
2022/11/02 06:57:15;;;;;;;25.98;4.22;;;;;;;;;;5041583;28;20025;-74
2022/11/02 06:59:40;;;;;;;26.05;3.10;;;;;;;;;;5040364;28;20036;-72
2022/11/02 07:02:08;;;;;;;23.10;3.83;;;;;;;;;;5038413;28;20052;-73
2022/11/02 07:04:34;;;;;;;22.00;3.58;;;;;;;;;;5039893;28;20037;-74
2022/11/02 07:07:00;;;;;;;28.63;3.65;;;;;;;;;;5041686;28;20037;-73
2022/11/02 07:09:25;;;;;;;33.75;3.47;;;;;;;;;;5024108;28;20029;-72
2022/11/02 07:11:51;;;;;;;17.88;3.20;;;;;;;;;;5043331;28;20022;-74
2022/11/02 07:14:17;;;;;;;24.08;3.17;;;;;;;;;;5036397;28;20025;-72
2022/11/02 07:16:43;;;;;;;28.27;3.88;;;;;;;;;;5034422;28;20067;-72
2022/11/02 07:19:09;;;;;;;34.42;4.68;;;;;;;;;;5034339;28;20037;-73
2022/11/02 07:21:35;;;;;;;26.27;3.20;;;;;;;;;;5076517;22;20500;-75
2022/11/02 07:24:01;;;;;;;22.83;3.70;;;;;;;;;;5072851;28;20032;-76
2022/11/02 07:26:27;;;;;;;22.88;3.22;;;;;;;;;;5072197;28;20111;-75
2022/11/02 07:28:53;;;;;;;30.13;3.35;;;;;;;;;;5074190;28;20060;-77
2022/11/02 07:31:19;;;;;;;21.33;3.17;;;;;;;;;;5075082;28;20029;-76
2022/11/02 07:33:45;;;;;;;22.13;3.33;;;;;;;;;;5076578;28;20032;-76
2022/11/02 07:36:12;;;;;;;25.55;3.42;;;;;;;;;;5075779;28;20050;-76
2022/11/02 07:38:37;;;;;;;23.10;3.47;;;;;;;;;;5077043;28;20024;-75
2022/11/02 07:41:03;;;;;;;25.73;3.90;;;;;;;;;;5078483;28;20029;-75
2022/11/02 07:43:29;;;;;;;32.50;3.88;;;;;;;;;;5077896;28;20446;-74
2022/11/02 07:45:55;;;;;;;20.58;3.70;;;;;;;;;;5076696;28;20036;-75
2022/11/02 07:48:21;;;;;;;33.42;6.32;;;;;;;;;;5075921;28;20042;-76
2022/11/02 07:50:47;;;;;;;22.25;3.65;;;;;;;;;;5075819;28;20097;-77
2022/11/02 07:53:13;;;;;;;26.83;3.65;;;;;;;;;;5075465;28;20027;-77
2022/11/02 07:55:39;;;;;;;21.65;3.25;;;;;;;;;;5075358;28;20048;-76
2022/11/02 07:58:06;;;;;;;19.00;4.68;;;;;;;;;;5075594;28;20341;-76
2022/11/02 08:00:34;;;;;;;24.55;4.78;;;;;;;;;;5075238;28;20092;-76
2022/11/02 08:03:01;;;;;;;25.00;3.72;;;;;;;;;;5075779;28;20020;-75
2022/11/02 08:05:28;;;;;;;28.88;3.88;;;;;;;;;;5074805;28;20335;-76
2022/11/02 08:07:57;;;;;;;20.05;3.22;;;;;;;;;;5074726;28;20033;-75
2022/11/02 08:10:23;;;;;;;19.90;3.78;;;;;;;;;;5075065;28;20347;-75
2022/11/02 08:12:49;;;;;;;21.92;3.60;;;;;;;;;;5075155;28;20061;-76
2022/11/02 08:15:15;;;;;;;25.17;3.40;;;;;;;;;;5073675;28;20119;-75
2022/11/02 08:17:41;;;;;;;22.35;2.60;;;;;;;;;;5075243;28;20025;-76
2022/11/02 08:20:08;;;;;;;18.30;3.30;;;;;;;;;;5076255;28;20448;-76
2022/11/02 08:22:37;;;;;;;30.65;3.40;;;;;;;;;;5076518;28;20036;-76
2022/11/02 08:25:03;;;;;;;23.08;3.40;;;;;;;;;;5074846;28;20105;-75
2022/11/02 08:27:29;;;;;;;16.95;2.90;;;;;;;;;;5075287;28;20465;-76
2022/11/02 08:29:55;;;;;;;14.73;2.92;;;;;;;;;;5075318;28;20100;-76
2022/11/02 08:32:21;;;;;;;24.65;3.38;;;;;;;;;;5075985;28;20381;-76
2022/11/02 08:34:55;;;;;;;17.92;3.05;;;;;;;;;;5076303;28;20032;-77
2022/11/02 08:37:21;;;;;;;22.05;3.47;;;;;;;;;;5073535;28;20083;-76
2022/11/02 08:39:47;;;;;;;18.02;2.90;;;;;;;;;;5080557;28;20028;-75
2022/11/02 08:42:13;;;;;;;21.38;2.70;;;;;;;;;;5079892;28;20016;-75
2022/11/02 08:44:39;;;;;;;17.92;2.72;;;;;;;;;;5074280;28;20039;-75
2022/11/02 08:47:05;;;;;;;26.08;2.88;;;;;;;;;;5076106;28;20032;-75
2022/11/02 08:49:31;;;;;;;25.83;3.08;;;;;;;;;;5076568;28;20042;-76
2022/11/02 08:51:57;;;;;;;29.70;3.63;;;;;;;;;;5075460;28;20017;-75
2022/11/02 08:54:23;;;;;;;17.00;2.22;;;;;;;;;;5074975;28;20060;-75
2022/11/02 08:56:48;;;;;;;16.70;2.58;;;;;;;;;;5075148;28;20028;-76
2022/11/02 08:59:14;;;;;;;23.25;2.78;;;;;;;;;;5074917;28;20121;-76
2022/11/02 09:01:40;;;;;;;22.02;2.95;;;;;;;;;;5074736;28;20125;-76
2022/11/02 09:04:06;;;;;;;18.33;3.00;;;;;;;;;;5074134;28;20393;-76
2022/11/02 09:06:32;;;;;;;23.70;3.45;;;;;;;;;;5075979;28;20042;-75
2022/11/02 09:08:58;;;;;;;30.02;3.78;;;;;;;;;;5077740;28;20048;-75
2022/11/02 09:11:24;;;;;;;15.07;2.63;;;;;;;;;;5075508;28;20032;-75
2022/11/02 09:13:50;;;;;;;19.95;3.25;;;;;;;;;;5073826;28;20500;-75
2022/11/02 09:16:16;;;;;;;15.65;3.47;;;;;;;;;;5073592;28;20139;-76
2022/11/02 09:18:42;;;;;;;17.67;3.35;;;;;;;;;;5073020;28;20078;-74
2022/11/02 09:21:08;;;;;;;22.33;3.28;;;;;;;;;;5074397;28;20479;-75
2022/11/02 09:23:34;;;;;;;20.05;2.67;;;;;;;;;;5075100;28;20028;-76
2022/11/02 09:26:00;;;;;;;19.50;2.75;;;;;;;;;;5073469;28;20490;-76
2022/11/02 09:28:26;;;;;;;18.73;3.15;;;;;;;;;;5072202;28;20029;-75
2022/11/02 09:30:52;;;;;;;23.10;3.45;;;;;;;;;;5073485;28;20024;-75
2022/11/02 09:33:18;;;;;;;19.05;2.85;;;;;;;;;;5073580;28;20070;-75
2022/11/02 09:35:46;;;;;;;22.85;3.08;;;;;;;;;;5073114;28;20031;-76
2022/11/02 09:38:12;;;;;;;17.83;2.72;;;;;;;;;;5074074;28;20361;-75
2022/11/02 09:40:46;;;;;;;15.60;2.72;;;;;;;;;;5074848;28;20031;-76
2022/11/02 09:43:12;;;;;;;;;;;;;;;;;;5072731;28;20021;-76
2022/11/02 09:45:50;;;;;;;22.58;2.92;;;;;;;;;;5073113;28;20216;-75
2022/11/02 09:48:18;;;;;;;21.00;2.35;;;;;;;;;;5073238;28;20362;-74
2022/11/02 09:50:47;;;;;;;20.65;3.88;;;;;;;;;;5073973;28;20465;-74
2022/11/02 09:53:19;;;;;;;22.42;3.70;;;;;;;;;;5074135;28;20085;-76
2022/11/02 09:55:56;;;;;;;20.13;3.17;;;;;;;;;;5073440;28;20028;-74
2022/11/02 09:58:33;;;;;;;21.25;2.90;;;;;;;;;;5073389;28;20104;-75
2022/11/02 10:01:02;;;;;;;16.88;2.72;;;;;;;;;;5072042;28;20074;-75
2022/11/02 10:03:47;;;;;;;19.10;3.63;;;;;;;;;;5077711;28;20070;-75
2022/11/02 10:06:14;;;;;;;21.33;2.55;;;;;;;;;;5079639;28;20071;-75
2022/11/02 10:08:40;;;;;;;16.83;2.80;;;;;;;;;;5080078;28;20029;-74
2022/11/02 10:11:12;;;;;;;20.42;3.10;;;;;;;;;;5073249;28;20500;-74
2022/11/02 10:13:47;;;;;;;20.05;2.92;;;;;;;;;;5073311;28;20079;-75
2022/11/02 10:16:16;;;;;;;20.65;3.17;;;;;;;;;;5073029;28;20103;-75
2022/11/02 10:18:43;;;;;;;20.08;3.40;;;;;;;;;;5073706;28;20472;-75
2022/11/02 10:21:11;;;;;;;12.68;3.08;;;;;;;;;;5072943;28;20040;-74
2022/11/02 10:23:40;;;;;;;17.52;2.70;;;;;;;;;;5073571;28;20389;-75
2022/11/02 10:26:06;;;;;;;15.55;2.47;;;;;;;;;;5073228;28;20024;-76
2022/11/02 10:28:34;;;;;;;13.95;2.78;;;;;;;;;;5073969;28;20067;-75
2022/11/02 10:31:00;;;;;;;19.13;2.22;;;;;;;;;;5073315;28;20056;-76
2022/11/02 10:33:28;;;;;;;16.00;2.30;;;;;;;;;;5072876;28;20385;-75
2022/11/02 10:36:09;;;;;;;9.57;1.80;;;;;;;;;;5072878;28;20032;-74
2022/11/02 10:38:48;;;;;;;10.63;2.35;;;;;;;;;;5072869;28;20027;-75
2022/11/02 10:41:51;;;;;;;14.90;2.30;;;;;;;;;;5071764;28;20389;-75
2022/11/02 10:44:17;;;;;;;8.40;2.20;;;;;;;;;;5030267;28;20033;-75
2022/11/02 10:46:42;;;;;;;15.65;1.90;;;;;;;;;;5063666;28;20036;-75
2022/11/02 10:49:40;;;;;;;12.52;2.40;;;;;;;;;;5072120;28;20442;-76
2022/11/02 10:52:08;;;;;;;13.57;2.28;;;;;;;;;;5071985;28;20034;-73
2022/11/02 10:54:33;;;;;;;19.88;2.92;;;;;;;;;;5073209;28;20370;-75
2022/11/02 10:57:00;;;;;;;20.10;3.00;;;;;;;;;;5072088;28;20039;-75
2022/11/02 10:59:25;;;;;;;16.40;2.42;;;;;;;;;;5072933;28;20070;-75
2022/11/02 11:01:57;;;;;;;19.50;2.78;;;;;;;;;;5072271;28;20385;-76
2022/11/02 11:04:24;;;;;;;18.98;3.00;;;;;;;;;;5072719;28;20103;-75
2022/11/02 11:06:50;;;;;;;18.63;2.65;;;;;;;;;;5070789;28;20025;-76
2022/11/02 11:09:19;;;;;;;23.00;3.67;;;;;;;;;;5072681;28;20133;-74
2022/11/02 11:12:06;;;;;;;15.65;2.30;;;;;;;;;;5072418;28;20070;-75
2022/11/02 11:14:45;;;;;;;15.60;2.35;;;;;;;;;;5072063;28;20024;-75
2022/11/02 11:17:20;;;;;;;25.95;2.45;;;;;;;;;;5070563;28;20107;-74
2022/11/02 11:19:52;;;;;;;11.63;1.98;;;;;;;;;;5071755;28;20054;-75
2022/11/02 11:22:24;;;;;;;10.25;1.88;;;;;;;;;;5071466;28;20040;-75
2022/11/02 11:24:50;;;;;;;13.80;2.47;;;;;;;;;;5071502;28;20028;-76
2022/11/02 11:27:16;;;;;;;20.70;2.97;;;;;;;;;;5073358;28;20028;-76
2022/11/02 11:30:00;;;;;;;12.80;2.33;;;;;;;;;;5071881;28;20487;-75
2022/11/02 11:32:27;;;;;;;11.35;1.90;;;;;;;;;;5071985;28;20044;-75
2022/11/02 11:35:04;;;;;;;12.43;2.20;;;;;;;;;;5072095;28;20461;-75
2022/11/02 11:37:30;;;;;;;13.10;1.92;;;;;;;;;;5071851;28;20035;-75
2022/11/02 11:39:58;;;;;;;11.48;1.92;;;;;;;;;;5072160;28;20048;-76
2022/11/02 11:42:27;;;;;;;10.65;1.90;;;;;;;;;;5071799;28;20478;-75
2022/11/02 11:44:58;;;;;;;9.10;2.30;;;;;;;;;;5072095;28;20033;-76
2022/11/02 11:47:25;;;;;;;13.73;2.13;;;;;;;;;;5071552;28;20557;-77
2022/11/02 11:49:52;;;;;;;10.32;1.95;;;;;;;;;;5072197;28;20016;-75
2022/11/02 11:52:20;;;;;;;18.63;3.03;;;;;;;;;;5071834;28;20035;-77
2022/11/02 11:54:52;;;;;;;10.70;2.10;;;;;;;;;;5071568;28;20028;-76
2022/11/02 11:57:30;;;;;;;9.43;1.92;;;;;;;;;;5071305;28;20024;-75
2022/11/02 11:59:58;;;;;;;14.27;1.90;;;;;;;;;;5071870;28;20044;-76
2022/11/02 12:02:31;;;;;;;9.55;1.85;;;;;;;;;;5071590;28;20638;-76
2022/11/02 12:04:59;;;;;;;9.75;2.08;;;;;;;;;;5071807;28;20370;-76
2022/11/02 12:07:27;;;;;;;10.25;2.30;;;;;;;;;;5071665;28;20428;-75
2022/11/02 12:10:00;;;;;;;18.58;2.75;;;;;;;;;;5071646;28;20024;-76
2022/11/02 12:12:45;;;;;;;11.98;2.15;;;;;;;;;;5071926;28;20029;-76
2022/11/02 12:15:20;;;;;;;11.55;2.35;;;;;;;;;;5071344;28;20069;-76
2022/11/02 12:17:46;;;;;;;13.60;2.45;;;;;;;;;;5071254;28;20430;-76
2022/11/02 12:20:19;;;;;;;9.25;1.90;;;;;;;;;;5075283;28;20096;-75
2022/11/02 12:22:56;;;;;;;10.48;2.15;;;;;;;;;;5074963;28;20477;-76
2022/11/02 12:25:25;;;;;;;12.73;2.17;;;;;;;;;;5074097;28;20028;-76
2022/11/02 12:28:12;;;;;;;10.80;2.00;;;;;;;;;;5075481;28;20027;-75
2022/11/02 12:30:41;;;;;;;18.95;3.45;;;;;;;;;;5074878;28;20016;-75
2022/11/02 12:33:10;;;;;;;15.35;2.63;;;;;;;;;;5074865;28;20032;-76
2022/11/02 12:35:48;;;;;;;8.75;2.40;;;;;;;;;;5074307;28;20051;-76
2022/11/02 12:38:32;;;;;;;9.75;2.25;;;;;;;;;;5075455;28;20012;-76
2022/11/02 12:40:58;;;;;;;12.18;2.40;;;;;;;;;;5077406;28;20028;-75
2022/11/02 12:43:27;;;;;;;13.07;2.00;;;;;;;;;;5085922;28;20105;-75
2022/11/02 12:46:03;;;;;;;12.10;1.90;;;;;;;;;;5082285;28;20047;-75
2022/11/02 12:48:36;;;;;;;16.80;2.25;;;;;;;;;;5075249;28;20021;-75
2022/11/02 12:51:07;;;;;;;15.93;2.55;;;;;;;;;;5081029;28;20433;-75
2022/11/02 12:53:45;;;;;;;11.57;2.58;;;;;;;;;;5076279;28;20024;-75
2022/11/02 12:56:15;;;;;;;10.07;2.30;;;;;;;;;;5074117;28;20035;-75
2022/11/02 12:58:41;;;;;;;13.05;3.05;;;;;;;;;;5074876;28;20059;-76
2022/11/02 13:01:13;;;;;;;14.48;2.55;;;;;;;;;;5074447;28;20081;-76
2022/11/02 13:03:48;;;;;;;16.25;2.35;;;;;;;;;;5074258;28;20108;-76
2022/11/02 13:06:16;;;;;;;11.98;1.98;;;;;;;;;;5074353;28;20025;-76
2022/11/02 13:08:46;;;;;;;8.00;1.75;;;;;;;;;;5074864;28;20024;-75
2022/11/02 13:11:15;;;;;;;11.70;2.30;;;;;;;;;;5078478;28;20020;-74
2022/11/02 13:13:49;;;;;;;11.95;2.22;;;;;;;;;;5075998;28;20024;-76
2022/11/02 13:16:17;;;;;;;12.30;2.38;;;;;;;;;;5075071;28;20477;-76
2022/11/02 13:18:43;;;;;;;11.57;2.83;;;;;;;;;;5075890;28;20110;-75
2022/11/02 13:21:11;;;;;;;13.85;2.28;;;;;;;;;;5081437;28;20058;-75
2022/11/02 13:23:39;;;;;;;16.88;2.38;;;;;;;;;;5074790;28;20111;-75
2022/11/02 13:26:20;;;;;;;18.42;2.63;;;;;;;;;;5072679;28;20024;-75
2022/11/02 13:29:00;;;;;;;15.32;2.45;;;;;;;;;;5074204;28;20480;-76
2022/11/02 13:31:35;;;;;;;19.20;3.25;;;;;;;;;;5072934;28;20059;-75
2022/11/02 13:34:04;;;;;;;12.50;2.13;;;;;;;;;;5073116;28;20052;-74
2022/11/02 13:36:30;;;;;;;23.38;3.08;;;;;;;;;;5072690;28;20171;-75
2022/11/02 13:39:05;;;;;;;17.83;2.88;;;;;;;;;;5073053;28;20020;-75
2022/11/02 13:41:31;;;;;;;14.13;3.28;;;;;;;;;;5072139;28;20485;-75
2022/11/02 13:44:16;;;;;;;19.58;3.50;;;;;;;;;;5079359;28;20033;-75
2022/11/02 13:46:53;;;;;;;20.67;2.75;;;;;;;;;;5073118;28;20036;-74
2022/11/02 13:49:21;;;;;;;19.75;3.03;;;;;;;;;;5072185;28;20032;-74
2022/11/02 13:51:49;;;;;;;14.25;2.55;;;;;;;;;;5073118;28;20411;-74
2022/11/02 13:54:23;;;;;;;14.27;2.53;;;;;;;;;;5073152;28;20031;-73
2022/11/02 13:56:54;;;;;;;21.90;3.05;;;;;;;;;;5075135;28;20084;-73
2022/11/02 13:59:22;;;;;;;13.50;2.00;;;;;;;;;;5076565;28;20028;-74
2022/11/02 14:01:50;;;;;;;14.70;2.78;;;;;;;;;;5073337;28;20025;-75
2022/11/02 14:04:16;;;;;;;13.45;2.33;;;;;;;;;;5074473;28;20048;-75
2022/11/02 14:06:49;;;;;;;9.15;1.95;;;;;;;;;;5075014;28;20029;-73
2022/11/02 14:09:21;;;;;;;14.07;2.58;;;;;;;;;;5075245;28;20060;-76
2022/11/02 14:11:48;;;;;;;13.95;2.55;;;;;;;;;;5073021;28;20024;-75
2022/11/02 14:14:24;;;;;;;10.85;2.40;;;;;;;;;;5072801;28;20028;-75
2022/11/02 14:16:50;;;;;;;9.35;2.50;;;;;;;;;;5073589;28;20033;-76
2022/11/02 14:19:16;;;;;;;9.65;2.05;;;;;;;;;;5072876;28;20081;-75
2022/11/02 14:21:43;;;;;;;14.05;2.67;;;;;;;;;;5072904;28;20032;-75
2022/11/02 14:24:27;;;;;;;13.80;2.60;;;;;;;;;;5073053;28;20067;-75
2022/11/02 14:26:55;;;;;;;15.60;2.50;;;;;;;;;;5074104;28;20031;-76
2022/11/02 14:29:47;;;;;;;17.02;2.28;;;;;;;;;;5073329;28;20074;-74
2022/11/02 14:32:17;;;;;;;12.60;2.70;;;;;;;;;;5072005;28;20085;-75
2022/11/02 14:34:50;;;;;;;16.08;4.82;;;;;;;;;;5076104;28;20019;-74
2022/11/02 14:37:35;;;;;;;11.98;2.58;;;;;;;;;;5076773;28;20029;-75
2022/11/02 14:40:08;;;;;;;10.77;2.53;;;;;;;;;;5074841;28;20067;-74
2022/11/02 14:42:34;;;;;;;10.00;2.20;;;;;;;;;;5077322;28;20059;-74
2022/11/02 14:45:00;;;;;;;16.70;2.40;;;;;;;;;;5077689;28;20021;-74
2022/11/02 14:47:27;;;;;;;13.30;2.10;;;;;;;;;;5073792;28;20516;-75
2022/11/02 14:50:01;;;;;;;12.90;2.40;;;;;;;;;;5074554;28;20070;-75
2022/11/02 14:52:28;;;;;;;12.43;2.25;;;;;;;;;;5080599;28;20051;-75
2022/11/02 14:54:59;;;;;;;13.25;2.35;;;;;;;;;;5079218;28;20068;-74
2022/11/02 14:57:30;;;;;;;10.88;2.17;;;;;;;;;;5076821;28;20032;-75
2022/11/02 14:59:59;;;;;;;11.02;2.17;;;;;;;;;;5074477;28;20103;-75